Time;durP1;ratioP1;P1;durP2;ratioP2;P2;SDS_P1;SDS_P2;PMS_P1;PMS_P2;Temp;Humidity;BMP_temperature;BMP_pressure;BME280_temperature;BME280_humidity;BME280_pressure;Samples;Min_cycle;Max_cycle;Signal;HPM_P1;HPM_P2
2021/09/24 00:00:44;;;;;;;0.77;0.70;;;;;;;13.23;100.00;100413.75;5118670;27;20529;-72
2021/09/24 00:03:09;;;;;;;1.70;0.70;;;;;;;13.22;100.00;100416.84;5131662;27;20636;-72
2021/09/24 00:05:35;;;;;;;0.53;0.53;;;;;;;13.17;100.00;100422.50;5131258;27;20267;-73
2021/09/24 00:08:00;;;;;;;1.43;0.60;;;;;;;13.09;100.00;100413.94;5132064;27;20655;-72
2021/09/24 00:10:25;;;;;;;0.57;0.57;;;;;;;13.04;100.00;100414.16;5131719;28;20623;-73
2021/09/24 00:12:51;;;;;;;2.53;0.90;;;;;;;13.00;100.00;100415.91;5113107;28;20691;-73
2021/09/24 00:15:17;;;;;;;3.60;0.90;;;;;;;12.95;100.00;100416.09;5131378;28;20168;-72
2021/09/24 00:17:43;;;;;;;0.87;0.87;;;;;;;12.91;100.00;100411.63;5131436;28;20210;-72
2021/09/24 00:20:10;;;;;;;4.27;0.50;;;;;;;12.86;100.00;100415.31;5131602;28;20172;-72
2021/09/24 00:22:35;;;;;;;2.93;1.30;;;;;;;12.79;100.00;100415.81;5131490;28;20176;-72
2021/09/24 00:25:01;;;;;;;1.20;0.60;;;;;;;12.75;100.00;100416.81;5112831;28;20263;-72
2021/09/24 00:27:26;;;;;;;0.40;0.40;;;;;;;12.69;100.00;100420.84;5131231;28;20221;-72
2021/09/24 00:29:51;;;;;;;3.23;0.67;;;;;;;12.65;100.00;100411.69;5131289;27;20636;-73
2021/09/24 00:32:17;;;;;;;0.93;0.70;;;;;;;12.62;100.00;100417.81;5131483;28;20180;-72
2021/09/24 00:34:42;;;;;;;0.90;0.70;;;;;;;12.59;100.00;100421.22;5131307;28;20172;-72
2021/09/24 00:37:07;;;;;;;2.10;0.60;;;;;;;12.60;100.00;100417.34;5112737;28;20194;-72
2021/09/24 00:39:33;;;;;;;1.07;0.87;;;;;;;12.60;100.00;100425.56;5131234;28;20179;-72
2021/09/24 00:41:58;;;;;;;0.70;0.47;;;;;;;12.60;100.00;100431.03;5131314;28;20219;-72
2021/09/24 00:44:40;;;;;;;1.23;0.70;;;;;;;12.60;100.00;100437.31;5131023;28;20225;-73
2021/09/24 00:47:06;;;;;;;1.60;0.93;;;;;;;12.61;100.00;100432.66;5131290;28;20200;-72
2021/09/24 00:49:31;;;;;;;2.77;0.83;;;;;;;12.58;100.00;100431.34;5131440;28;20184;-72
2021/09/24 00:51:57;;;;;;;1.30;0.67;;;;;;;12.57;100.00;100432.47;5131075;28;20169;-72
2021/09/24 00:54:23;;;;;;;1.37;0.70;;;;;;;12.54;100.00;100426.84;5130828;27;20169;-72
2021/09/24 00:56:48;;;;;;;0.70;0.60;;;;;;;12.54;100.00;100433.13;5131230;28;20688;-73
2021/09/24 00:59:13;;;;;;;1.43;0.90;;;;;;;12.53;100.00;100428.78;5131184;27;20179;-73
2021/09/24 01:01:39;;;;;;;2.13;0.97;;;;;;;12.53;100.00;100434.25;5131159;28;20184;-72
2021/09/24 01:04:05;;;;;;;2.83;1.13;;;;;;;12.52;100.00;100436.19;5130960;28;20176;-73
2021/09/24 01:06:31;;;;;;;1.40;0.83;;;;;;;12.51;100.00;100437.31;5131034;28;20619;-72
2021/09/24 01:08:56;;;;;;;2.67;1.20;;;;;;;12.52;100.00;100438.13;5130882;27;20272;-72
2021/09/24 01:11:22;;;;;;;0.90;0.73;;;;;;;12.54;100.00;100435.88;5131071;28;20173;-72
2021/09/24 01:13:47;;;;;;;3.83;0.93;;;;;;;12.53;100.00;100437.00;5130774;28;20174;-72
2021/09/24 01:16:12;;;;;;;2.30;1.40;;;;;;;12.56;100.00;100432.81;5130936;28;20176;-72
2021/09/24 01:18:38;;;;;;;5.17;1.13;;;;;;;12.56;100.00;100421.84;5132626;27;20165;-72
2021/09/24 01:21:08;;;;;;;2.83;1.67;;;;;;;12.54;100.00;100424.91;5134984;27;20197;-72
2021/09/24 01:23:34;;;;;;;2.40;0.73;;;;;;;12.50;100.00;100435.72;5134590;27;20200;-74
2021/09/24 01:25:59;;;;;;;4.17;2.00;;;;;;;12.47;100.00;100436.38;5134302;27;20227;-72
2021/09/24 01:28:24;;;;;;;2.47;1.40;;;;;;;12.47;100.00;100435.56;5134519;27;20204;-71
2021/09/24 01:30:50;;;;;;;1.80;0.90;;;;;;;12.45;100.00;100424.94;5134607;27;20176;-72
2021/09/24 01:33:15;;;;;;;5.63;1.83;;;;;;;12.41;100.00;100440.41;5134449;27;20666;-72
2021/09/24 01:35:40;;;;;;;2.17;1.40;;;;;;;12.37;100.00;100414.78;5133759;27;20263;-72
2021/09/24 01:38:06;;;;;;;7.83;1.40;;;;;;;12.31;100.00;100407.88;5115868;27;20658;-72
2021/09/24 01:40:31;;;;;;;0.93;0.83;;;;;;;12.28;100.00;100427.66;5134228;27;20168;-72
2021/09/24 01:42:56;;;;;;;1.70;1.20;;;;;;;12.25;100.00;100428.31;5134093;27;20513;-72
2021/09/24 01:45:22;;;;;;;3.73;2.33;;;;;;;12.21;100.00;100425.44;5134290;27;20701;-72
2021/09/24 01:47:48;;;;;;;4.20;1.97;;;;;;;12.19;100.00;100435.09;5134199;27;20687;-72
2021/09/24 01:50:14;;;;;;;2.20;1.27;;;;;;;12.18;100.00;100438.97;5115393;27;20183;-72
2021/09/24 01:52:39;;;;;;;4.53;1.40;;;;;;;12.15;100.00;100423.16;5134025;27;20196;-72
2021/09/24 01:55:06;;;;;;;2.87;1.43;;;;;;;12.09;100.00;100435.41;5134087;27;20880;-73
2021/09/24 01:57:32;;;;;;;5.80;2.83;;;;;;;12.07;100.00;100437.66;5134021;27;20172;-72
2021/09/24 01:59:57;;;;;;;1.80;1.70;;;;;;;12.07;100.00;100434.94;5133934;27;20642;-72
2021/09/24 02:02:22;;;;;;;2.57;1.87;;;;;;;12.09;100.00;100446.38;5133855;27;20204;-73
2021/09/24 02:04:48;;;;;;;4.90;2.50;;;;;;;12.09;100.00;100443.63;5133410;27;20195;-72
2021/09/24 02:07:13;;;;;;;2.40;1.40;;;;;;;12.09;100.00;100440.88;5133601;27;20638;-72
2021/09/24 02:09:39;;;;;;;2.23;1.60;;;;;;;12.09;100.00;100449.09;5133550;27;20212;-73
2021/09/24 02:12:04;;;;;;;3.77;1.67;;;;;;;12.06;100.00;100441.53;5133716;27;20218;-72
2021/09/24 02:14:30;;;;;;;3.87;1.63;;;;;;;12.04;100.00;100443.78;5133506;27;20187;-72
2021/09/24 02:16:55;;;;;;;2.93;1.47;;;;;;;11.99;100.00;100442.00;5133485;27;20242;-72
2021/09/24 02:19:20;;;;;;;3.47;2.23;;;;;;;11.99;100.00;100442.00;5133317;27;20179;-72
2021/09/24 02:21:46;;;;;;;3.27;1.33;;;;;;;12.00;100.00;100448.28;5133445;27;20180;-72
2021/09/24 02:24:12;;;;;;;1.47;1.23;;;;;;;11.98;100.00;100440.38;5133409;27;20199;-72
2021/09/24 02:26:37;;;;;;;2.23;1.03;;;;;;;11.98;100.00;100436.84;5133289;27;20537;-72
2021/09/24 02:29:02;;;;;;;3.23;1.40;;;;;;;11.99;100.00;100444.72;5133112;27;20176;-72
2021/09/24 02:31:28;;;;;;;3.80;0.97;;;;;;;12.08;100.00;100440.09;5133024;27;20172;-73
2021/09/24 02:33:53;;;;;;;3.90;0.80;;;;;;;12.12;100.00;100451.19;5132854;27;20175;-73
2021/09/24 02:36:18;;;;;;;5.60;1.60;;;;;;;12.12;100.00;100440.22;5132725;27;20168;-72
2021/09/24 02:38:44;;;;;;;0.60;0.60;;;;;;;12.09;100.00;100446.38;5132976;27;20176;-72
2021/09/24 02:41:09;;;;;;;3.23;1.73;;;;;;;12.06;100.00;100447.00;5132978;27;20644;-72
2021/09/24 02:43:34;;;;;;;2.87;2.23;;;;;;;12.04;100.00;100460.22;5132997;27;20230;-72
2021/09/24 02:46:00;;;;;;;4.40;1.13;;;;;;;12.01;100.00;100450.72;5132515;27;20624;-72
2021/09/24 02:48:26;;;;;;;1.43;1.27;;;;;;;12.02;100.00;100446.06;5132846;27;20172;-72
2021/09/24 02:50:51;;;;;;;1.00;0.50;;;;;;;11.97;100.00;100444.25;5132765;27;20238;-72
2021/09/24 02:53:16;;;;;;;10.83;1.17;;;;;;;11.97;100.00;100441.50;5132955;27;20536;-72
2021/09/24 02:55:42;;;;;;;4.73;1.30;;;;;;;11.95;100.00;100445.72;5132471;27;20176;-73
2021/09/24 02:58:07;;;;;;;7.57;2.37;;;;;;;11.94;100.00;100444.09;5132645;27;20244;-73
2021/09/24 03:00:33;;;;;;;2.80;1.20;;;;;;;11.93;100.00;100431.53;5114006;27;20173;-72
2021/09/24 03:02:58;;;;;;;9.13;1.73;;;;;;;11.88;100.00;100425.09;5132488;27;20176;-72
2021/09/24 03:05:24;;;;;;;2.63;1.93;;;;;;;11.90;100.00;100436.53;5132284;27;20242;-72
2021/09/24 03:07:50;;;;;;;4.93;1.97;;;;;;;11.94;100.00;100424.94;5128778;27;20600;-72
2021/09/24 03:10:16;;;;;;;2.13;1.07;;;;;;;11.93;100.00;100431.53;5132315;27;20212;-72
2021/09/24 03:12:42;;;;;;;2.73;1.47;;;;;;;11.92;100.00;100430.72;5113913;27;20172;-72
2021/09/24 03:15:09;;;;;;;3.17;2.47;;;;;;;11.91;100.00;100446.34;5132044;27;20180;-72
2021/09/24 03:17:35;;;;;;;4.03;1.90;;;;;;;11.89;100.00;100451.34;5132370;27;20237;-72
2021/09/24 03:20:01;;;;;;;3.00;1.43;;;;;;;11.87;100.00;100450.88;5132392;27;20598;-72
2021/09/24 03:22:26;;;;;;;3.83;1.60;;;;;;;11.88;100.00;100457.94;5132540;27;20533;-72
2021/09/24 03:24:52;;;;;;;2.47;2.10;;;;;;;11.87;100.00;100452.78;5113619;27;20505;-72
2021/09/24 03:27:18;;;;;;;3.00;2.70;;;;;;;11.89;100.00;100464.22;5132173;27;20621;-72
2021/09/24 03:29:43;;;;;;;5.10;3.00;;;;;;;11.88;100.00;100462.63;5132109;27;20176;-73
2021/09/24 03:32:08;;;;;;;5.73;2.90;;;;;;;11.87;100.00;100466.47;5132260;27;20686;-72
2021/09/24 03:34:34;;;;;;;4.90;2.43;;;;;;;11.84;100.00;100459.69;5131982;27;20636;-72
2021/09/24 03:36:59;;;;;;;2.90;1.77;;;;;;;11.85;100.00;100464.03;5131825;27;20255;-72
2021/09/24 03:39:25;;;;;;;2.77;2.50;;;;;;;11.84;100.00;100470.63;5132132;27;20172;-72
2021/09/24 03:41:52;;;;;;;3.17;2.60;;;;;;;11.81;100.00;100452.13;5131408;27;20522;-73
2021/09/24 03:44:17;;;;;;;3.63;2.50;;;;;;;11.83;100.00;100455.34;5131793;27;20264;-72
2021/09/24 03:46:43;;;;;;;6.23;3.27;;;;;;;11.83;100.00;100462.75;5131750;27;20279;-72
2021/09/24 03:49:08;;;;;;;2.67;2.17;;;;;;;11.84;100.00;100456.16;5131879;27;20179;-72
2021/09/24 03:51:33;;;;;;;2.87;1.90;;;;;;;11.81;100.00;100478.69;5132006;27;20169;-72
2021/09/24 03:53:59;;;;;;;3.13;2.83;;;;;;;11.79;100.00;100468.06;5131732;27;20630;-72
2021/09/24 03:56:25;;;;;;;1.70;1.57;;;;;;;11.81;100.00;100475.97;5131826;27;20246;-72
2021/09/24 03:58:50;;;;;;;2.30;2.17;;;;;;;11.83;100.00;100484.66;5131940;27;20512;-72
2021/09/24 04:01:16;;;;;;;4.23;2.30;;;;;;;11.84;100.00;100462.44;5131710;27;20205;-72
2021/09/24 04:03:43;;;;;;;2.63;2.40;;;;;;;11.84;100.00;100456.94;5131611;27;20194;-71
2021/09/24 04:06:09;;;;;;;7.13;2.23;;;;;;;11.81;100.00;100482.25;5131495;27;20200;-72
2021/09/24 04:08:34;;;;;;;3.83;1.43;;;;;;;11.83;100.00;100484.66;5131664;27;20165;-71
2021/09/24 04:10:59;;;;;;;7.60;2.47;;;;;;;11.84;100.00;100483.53;5131388;27;20251;-72
2021/09/24 04:13:25;;;;;;;4.43;1.73;;;;;;;11.88;100.00;100484.53;5131654;28;20183;-72
2021/09/24 04:15:50;;;;;;;1.50;1.17;;;;;;;11.89;100.00;100492.41;5131654;28;20289;-73
2021/09/24 04:18:15;;;;;;;5.07;2.10;;;;;;;11.90;100.00;100488.53;5131701;28;20563;-72
2021/09/24 04:20:41;;;;;;;2.90;2.03;;;;;;;11.89;100.00;100484.19;5131553;28;20530;-72
2021/09/24 04:23:06;;;;;;;3.20;3.00;;;;;;;11.87;100.00;100480.97;5131452;28;20180;-72
2021/09/24 04:25:32;;;;;;;4.00;2.00;;;;;;;11.85;100.00;100480.47;5131235;28;20172;-72
2021/09/24 04:27:57;;;;;;;1.70;1.60;;;;;;;11.85;100.00;100477.72;5131607;28;20295;-72
2021/09/24 04:30:23;;;;;;;1.80;1.40;;;;;;;11.87;100.00;100485.66;5131543;28;20515;-72
2021/09/24 04:32:48;;;;;;;5.43;1.83;;;;;;;11.86;100.00;100525.06;5131391;27;20245;-72
2021/09/24 04:35:14;;;;;;;3.77;1.93;;;;;;;11.86;100.00;100531.38;5131109;28;20204;-72
2021/09/24 04:37:40;;;;;;;2.03;1.73;;;;;;;11.86;100.00;100511.38;5131133;27;20184;-71
2021/09/24 04:40:06;;;;;;;1.90;1.80;;;;;;;11.86;100.00;100509.47;5131363;28;20682;-72
2021/09/24 04:42:32;;;;;;;2.50;2.10;;;;;;;11.85;100.00;100507.03;5131291;28;20206;-72
2021/09/24 04:44:58;;;;;;;2.53;2.33;;;;;;;11.88;100.00;100511.91;5112734;28;20271;-72
2021/09/24 04:47:23;;;;;;;2.00;1.87;;;;;;;11.88;100.00;100523.66;5131138;28;20298;-72
2021/09/24 04:49:48;;;;;;;1.43;1.33;;;;;;;11.89;100.00;100524.47;5131299;28;20263;-72
2021/09/24 04:52:14;;;;;;;1.33;1.23;;;;;;;11.89;100.00;100519.78;5131232;27;20183;-72
2021/09/24 04:54:39;;;;;;;1.47;1.20;;;;;;;11.88;100.00;100536.53;5134749;27;20200;-72
2021/09/24 04:57:05;;;;;;;6.07;3.50;;;;;;;11.89;100.00;100528.00;5135224;27;20180;-72
2021/09/24 04:59:30;;;;;;;4.13;3.60;;;;;;;11.88;100.00;100534.59;5135021;27;20574;-77
2021/09/24 05:01:56;;;;;;;3.53;2.17;;;;;;;11.94;100.00;100520.75;5135009;27;20237;-72
2021/09/24 05:04:21;;;;;;;2.53;2.30;;;;;;;11.94;100.00;100537.19;5134843;27;20195;-73
2021/09/24 05:06:46;;;;;;;4.50;2.37;;;;;;;11.96;100.00;100549.44;5134853;27;20196;-72
2021/09/24 05:09:11;;;;;;;2.67;2.13;;;;;;;12.00;100.00;100536.72;5135009;27;20247;-73
2021/09/24 05:11:37;;;;;;;2.90;2.70;;;;;;;12.03;100.00;100541.56;5134919;27;20177;-73
2021/09/24 05:14:04;;;;;;;1.37;1.00;;;;;;;12.05;100.00;100553.00;5134734;27;20242;-72
2021/09/24 05:16:30;;;;;;;2.70;1.97;;;;;;;12.08;100.00;100559.78;5134825;27;20482;-72
2021/09/24 05:18:55;;;;;;;5.67;2.87;;;;;;;12.10;100.00;100550.09;5134759;27;20169;-72
2021/09/24 05:21:21;;;;;;;2.23;1.67;;;;;;;12.16;100.00;100564.47;5134484;27;20232;-72
2021/09/24 05:23:46;;;;;;;2.23;2.00;;;;;;;12.19;100.00;100561.09;5134367;27;20172;-72
2021/09/24 05:26:11;;;;;;;4.13;1.90;;;;;;;12.22;100.00;100563.19;5134703;27;20227;-72
2021/09/24 05:28:37;;;;;;;5.37;2.97;;;;;;;12.28;100.00;100578.34;5134516;27;20221;-73
2021/09/24 05:31:02;;;;;;;2.90;2.20;;;;;;;12.35;100.00;100564.19;5115936;27;20597;-72
2021/09/24 05:33:28;;;;;;;4.17;3.07;;;;;;;12.40;100.00;100556.59;5134317;27;20175;-71
2021/09/24 05:35:53;;;;;;;10.80;1.87;;;;;;;12.46;100.00;100560.81;5133771;27;20169;-72
2021/09/24 05:38:19;;;;;;;5.43;3.00;;;;;;;12.54;100.00;100564.69;5134617;27;20176;-73
2021/09/24 05:40:45;;;;;;;1.97;1.87;;;;;;;12.60;100.00;100568.09;5115747;27;20179;-72
2021/09/24 05:43:10;;;;;;;3.93;2.87;;;;;;;12.66;100.00;100566.78;5134195;27;20169;-72
2021/09/24 05:45:35;;;;;;;3.03;1.40;;;;;;;12.74;100.00;100577.75;5134016;27;20205;-72
2021/09/24 05:48:01;;;;;;;4.87;2.97;;;;;;;12.81;100.00;100582.75;5134225;27;20565;-75
2021/09/24 05:50:26;;;;;;;6.47;3.20;;;;;;;12.86;100.00;100590.00;5134018;27;20260;-72
2021/09/24 05:52:53;;;;;;;2.70;2.43;;;;;;;12.92;100.00;100577.75;5133882;27;20177;-72
2021/09/24 05:55:21;;;;;;;4.70;2.27;;;;;;;12.97;100.00;100575.66;5134089;27;20176;-72
2021/09/24 05:57:47;;;;;;;10.73;3.33;;;;;;;13.01;100.00;100576.59;5134160;27;20256;-72
2021/09/24 06:00:15;;;;;;;2.00;1.53;;;;;;;13.05;100.00;100566.63;5133730;27;20640;-72
2021/09/24 06:02:42;;;;;;;3.00;2.80;;;;;;;13.07;100.00;100585.47;5129680;27;20203;-73
2021/09/24 06:05:08;;;;;;;1.17;1.03;;;;;;;13.10;100.00;100579.34;5133099;27;20196;-73
2021/09/24 06:07:33;;;;;;;5.43;2.03;;;;;;;13.10;100.00;100577.41;5133520;27;20635;-73
2021/09/24 06:09:59;;;;;;;2.50;2.20;;;;;;;13.12;100.00;100566.09;5133802;27;20275;-72
2021/09/24 06:12:24;;;;;;;5.77;1.53;;;;;;;13.13;100.00;100586.09;5133902;27;20161;-73
2021/09/24 06:14:49;;;;;;;1.53;1.40;;;;;;;13.13;100.00;100583.38;5133341;27;20177;-73
2021/09/24 06:17:15;;;;;;;3.80;2.17;;;;;;;13.14;100.00;100593.22;5133583;27;20172;-73
2021/09/24 06:19:41;;;;;;;3.87;2.10;;;;;;;13.15;100.00;100592.88;5133394;27;20217;-73
2021/09/24 06:22:07;;;;;;;2.53;1.50;;;;;;;13.17;100.00;100579.66;5133406;27;20751;-73
2021/09/24 06:24:32;;;;;;;1.50;0.83;;;;;;;13.20;100.00;100590.03;5132884;27;20671;-72
2021/09/24 06:26:59;;;;;;;3.53;1.40;;;;;;;13.22;100.00;100587.75;5133186;27;20199;-74
2021/09/24 06:29:24;;;;;;;3.67;1.70;;;;;;;13.24;100.00;100601.16;5133278;27;20256;-73
2021/09/24 06:31:50;;;;;;;3.40;1.03;;;;;;;13.25;100.00;100600.81;5133545;27;20248;-72
2021/09/24 06:34:15;;;;;;;2.33;1.50;;;;;;;13.29;100.00;100600.97;5140493;27;20172;-72
2021/09/24 06:36:40;;;;;;;2.57;0.90;;;;;;;13.31;100.00;100604.22;5140136;27;20165;-72
2021/09/24 06:39:06;;;;;;;0.93;0.70;;;;;;;13.35;100.00;100596.94;5134670;27;20176;-74
2021/09/24 06:41:31;;;;;;;2.63;0.70;;;;;;;13.37;100.00;100600.16;5133808;27;20632;-72
2021/09/24 06:43:57;;;;;;;0.63;0.63;;;;;;;13.42;100.00;100602.72;5132364;27;20176;-71
2021/09/24 06:46:22;;;;;;;8.60;1.63;;;;;;;13.48;100.00;100601.44;5132997;27;20200;-71
2021/09/24 06:48:48;;;;;;;1.23;0.87;;;;;;;13.52;100.00;100607.06;5132637;27;20192;-72
2021/09/24 06:51:13;;;;;;;1.33;1.23;;;;;;;13.57;100.00;100598.63;5132936;27;20184;-72
2021/09/24 06:53:39;;;;;;;6.03;1.70;;;;;;;13.60;100.00;100601.56;5132923;27;20172;-72
2021/09/24 06:56:04;;;;;;;1.67;1.10;;;;;;;13.63;100.00;100609.13;5132994;27;20198;-72
2021/09/24 06:58:30;;;;;;;4.30;1.40;;;;;;;13.67;100.00;100606.53;5132908;27;20180;-71
2021/09/24 07:00:55;;;;;;;3.13;0.90;;;;;;;13.73;100.00;100601.66;5132776;27;20172;-72
2021/09/24 07:03:21;;;;;;;3.57;0.63;;;;;;;13.76;100.00;100599.06;5132716;27;20249;-72
2021/09/24 07:05:46;;;;;;;4.67;1.70;;;;;;;13.80;100.00;100605.50;5132558;27;20180;-72
2021/09/24 07:08:11;;;;;;;1.90;1.50;;;;;;;13.85;100.00;100605.31;5132607;27;20207;-72
2021/09/24 07:10:37;;;;;;;4.03;1.33;;;;;;;13.88;100.00;100607.41;5132605;27;20183;-71
2021/09/24 07:13:02;;;;;;;1.30;1.20;;;;;;;13.89;100.00;100600.00;5132468;27;20580;-71
2021/09/24 07:15:28;;;;;;;3.00;1.53;;;;;;;13.89;100.00;100605.50;5131472;27;20252;-72
2021/09/24 07:17:53;;;;;;;2.30;2.10;;;;;;;13.89;100.00;100606.31;5132286;27;20176;-72
2021/09/24 07:20:18;;;;;;;2.27;1.60;;;;;;;13.90;100.00;100607.91;5132071;27;20583;-72
2021/09/24 07:22:43;;;;;;;1.63;1.03;;;;;;;13.91;100.00;100605.97;5132092;27;20567;-72
2021/09/24 07:25:10;;;;;;;2.70;2.23;;;;;;;13.93;100.00;100606.44;5131978;27;20271;-72
2021/09/24 07:27:35;;;;;;;2.97;1.80;;;;;;;13.97;100.00;100605.44;5131846;27;20208;-72
2021/09/24 07:30:01;;;;;;;2.27;1.40;;;;;;;14.00;100.00;100613.00;5131964;27;20173;-72
2021/09/24 07:32:26;;;;;;;6.63;2.00;;;;;;;14.04;100.00;100606.88;5132334;27;20172;-73
2021/09/24 07:34:52;;;;;;;2.13;1.37;;;;;;;14.08;100.00;100608.63;5131695;27;20184;-73
2021/09/24 07:37:17;;;;;;;3.00;1.20;;;;;;;14.11;100.00;100623.66;5132008;27;20168;-74
2021/09/24 07:39:43;;;;;;;0.90;0.90;;;;;;;14.14;100.00;100622.97;5131767;27;20168;-74
2021/09/24 07:42:08;;;;;;;3.70;2.07;;;;;;;14.15;100.00;100625.38;5131738;27;20169;-73
2021/09/24 07:44:34;;;;;;;5.23;1.47;;;;;;;14.17;100.00;100622.31;5131412;27;20175;-73
2021/09/24 07:46:59;;;;;;;1.97;1.20;;;;;;;14.20;100.00;100627.16;5131488;27;20203;-73
2021/09/24 07:49:25;;;;;;;10.23;1.87;;;;;;;14.24;100.00;100633.59;5131528;27;20175;-73
2021/09/24 07:51:53;;;;;;;3.40;2.13;;;;;;;14.30;100.00;100629.50;5131663;27;20200;-73
2021/09/24 07:54:21;;;;;;;3.03;1.40;;;;;;;14.34;100.00;100630.47;5131353;27;20692;-73
2021/09/24 07:56:46;;;;;;;3.73;1.67;;;;;;;14.32;100.00;100634.69;5113076;28;20233;-74
2021/09/24 07:59:12;;;;;;;4.80;1.17;;;;;;;14.33;100.00;100636.31;5131471;27;20217;-74
2021/09/24 08:01:37;;;;;;;1.77;1.00;;;;;;;14.33;100.00;100628.06;5131159;27;20226;-73
2021/09/24 08:04:03;;;;;;;1.97;0.63;;;;;;;14.34;100.00;100632.44;5131109;27;20168;-74
2021/09/24 08:06:28;;;;;;;3.97;2.33;;;;;;;14.36;100.00;100632.91;5131324;27;20211;-73
2021/09/24 08:08:53;;;;;;;3.27;0.57;;;;;;;14.39;100.00;100629.47;5131407;27;20164;-72
2021/09/24 08:11:19;;;;;;;1.30;1.20;;;;;;;14.41;100.00;100621.69;5131696;27;20224;-74
2021/09/24 08:13:44;;;;;;;0.93;0.90;;;;;;;14.44;100.00;100632.06;5130943;28;20183;-73
2021/09/24 08:16:11;;;;;;;3.97;1.77;;;;;;;14.47;100.00;100632.22;5131153;27;20212;-73
2021/09/24 08:18:37;;;;;;;2.17;0.77;;;;;;;14.51;100.00;100624.09;5131257;27;20195;-73
2021/09/24 08:21:03;;;;;;;1.10;1.10;;;;;;;14.55;100.00;100616.78;5131242;27;20575;-73
2021/09/24 08:23:29;;;;;;;2.23;1.43;;;;;;;14.59;100.00;100631.47;5131182;28;20221;-74
2021/09/24 08:25:54;;;;;;;1.83;1.00;;;;;;;14.61;100.00;100633.88;5131084;27;20446;-74
2021/09/24 08:28:20;;;;;;;0.90;0.70;;;;;;;14.63;100.00;100643.44;5134527;27;20204;-73
2021/09/24 08:30:46;;;;;;;3.30;1.10;;;;;;;14.67;100.00;100633.38;5135351;27;20259;-74
2021/09/24 08:33:14;;;;;;;1.30;0.83;;;;;;;14.70;100.00;100629.94;5135316;27;20168;-74
2021/09/24 08:35:41;;;;;;;3.97;1.60;;;;;;;14.73;100.00;100626.53;5135068;27;20168;-73
2021/09/24 08:38:07;;;;;;;2.03;1.30;;;;;;;14.78;100.00;100633.78;5135294;27;20259;-73
2021/09/24 08:40:33;;;;;;;3.03;1.67;;;;;;;14.82;100.00;100635.53;5135115;27;20176;-73
2021/09/24 08:43:00;;;;;;;1.23;1.03;;;;;;;14.85;100.00;100639.53;5135083;27;20263;-73
2021/09/24 08:45:27;;;;;;;3.77;1.23;;;;;;;14.88;100.00;100633.38;5134789;27;20177;-74
2021/09/24 08:47:57;;;;;;;1.30;1.20;;;;;;;14.91;100.00;100631.91;5135002;27;20204;-73
2021/09/24 08:50:24;;;;;;;1.10;0.97;;;;;;;14.91;100.00;100626.41;5134938;27;20690;-74
2021/09/24 08:52:50;;;;;;;16.23;3.03;;;;;;;14.95;100.00;100630.09;5134996;27;20765;-73
2021/09/24 08:55:17;;;;;;;6.33;2.50;;;;;;;14.98;100.00;100619.22;5134659;27;20172;-73
2021/09/24 08:57:43;;;;;;;4.10;1.90;;;;;;;15.06;100.00;100617.53;5135274;27;20285;-74
2021/09/24 09:00:10;;;;;;;3.50;1.13;;;;;;;15.08;100.00;100618.00;5134498;27;20177;-74
2021/09/24 09:02:51;;;;;;;2.10;1.73;;;;;;;15.12;100.00;100613.44;5134706;27;20212;-73
2021/09/24 09:05:17;;;;;;;3.20;2.00;;;;;;;15.22;100.00;100607.53;5134691;27;20184;-73
2021/09/24 09:07:45;;;;;;;1.20;1.10;;;;;;;15.31;100.00;100613.72;5134944;27;20295;-74
2021/09/24 09:10:10;;;;;;;2.37;2.17;;;;;;;15.38;100.00;100615.94;5116437;27;20510;-73
2021/09/24 09:12:36;;;;;;;1.53;1.00;;;;;;;15.46;100.00;100618.59;5134615;27;20177;-74
2021/09/24 09:15:06;;;;;;;4.40;1.97;;;;;;;15.50;100.00;100607.72;5134211;27;20179;-74
2021/09/24 09:17:34;;;;;;;1.63;1.53;;;;;;;15.54;100.00;100613.34;5134599;27;20601;-74
2021/09/24 09:20:19;;;;;;;3.77;2.13;;;;;;;15.58;100.00;100606.00;5129782;27;20184;-74
2021/09/24 09:23:04;;;;;;;3.40;1.77;;;;;;;15.63;100.00;100616.84;5126024;27;20207;-73
2021/09/24 09:25:33;;;;;;;2.67;1.63;;;;;;;15.67;100.00;100598.50;5134046;27;20238;-74
2021/09/24 09:28:06;;;;;;;1.10;1.10;;;;;;;15.65;100.00;100601.59;5125834;27;20200;-73
2021/09/24 09:30:33;;;;;;;1.33;1.17;;;;;;;15.67;100.00;100598.50;5123498;27;20173;-72
2021/09/24 09:33:07;;;;;;;1.47;1.23;;;;;;;15.69;100.00;100593.44;5119485;27;20575;-72
2021/09/24 09:36:00;;;;;;;2.53;2.33;;;;;;;15.73;100.00;100594.34;5107271;28;20177;-72
2021/09/24 09:38:31;;;;;;;0.97;0.97;;;;;;;15.75;100.00;100594.81;5122513;27;20189;-73
2021/09/24 09:41:08;;;;;;;1.67;1.20;;;;;;;15.75;100.00;100598.38;5115702;27;20173;-73
2021/09/24 09:44:00;;;;;;;7.83;2.90;;;;;;;15.86;100.00;100595.19;5120597;27;20204;-74
2021/09/24 09:46:30;;;;;;;8.13;2.07;;;;;;;15.96;100.00;100601.06;5131761;27;20671;-74
2021/09/24 09:49:16;;;;;;;2.73;2.43;;;;;;;16.03;100.00;100594.94;5133932;27;20168;-73
2021/09/24 09:51:44;;;;;;;1.80;1.70;;;;;;;16.14;100.00;100595.31;5133976;27;20632;-74
2021/09/24 09:54:26;;;;;;;0.20;0.20;;;;;;;16.18;100.00;100585.19;5133154;27;20230;-73
2021/09/24 09:56:52;;;;;;;2.43;1.93;;;;;;;16.20;100.00;100594.75;5126694;27;20223;-74
2021/09/24 09:59:25;;;;;;;2.50;2.30;;;;;;;16.28;100.00;100598.50;5133663;27;20172;-74
2021/09/24 10:02:13;;;;;;;2.13;1.60;;;;;;;16.41;100.00;100593.78;5133703;27;20271;-73
2021/09/24 10:04:43;;;;;;;4.40;2.50;;;;;;;16.58;100.00;100590.78;5133172;27;20192;-74
2021/09/24 10:07:35;;;;;;;1.93;1.60;;;;;;;16.70;100.00;100587.22;5133699;27;20279;-74
2021/09/24 10:10:11;;;;;;;2.10;1.90;;;;;;;16.70;100.00;100584.47;5133761;27;20169;-74
2021/09/24 10:12:38;;;;;;;5.57;3.57;;;;;;;16.59;100.00;100575.81;5133453;27;20248;-74
2021/09/24 10:15:05;;;;;;;2.40;1.97;;;;;;;16.58;100.00;100580.53;5133269;27;20173;-74
2021/09/24 10:17:31;;;;;;;3.13;2.90;;;;;;;16.59;100.00;100578.59;5113795;27;20692;-73
2021/09/24 10:19:56;;;;;;;3.63;1.47;;;;;;;16.66;100.00;100574.09;5128582;27;20172;-73
2021/09/24 10:22:24;;;;;;;6.13;3.03;;;;;;;16.74;100.00;100572.38;5131794;27;20580;-74
2021/09/24 10:24:51;;;;;;;5.83;3.67;;;;;;;16.88;100.00;100569.22;5124470;27;20530;-73
2021/09/24 10:27:27;;;;;;;4.90;2.53;;;;;;;17.04;100.00;100570.06;5132451;27;20424;-72
2021/09/24 10:29:56;;;;;;;4.00;3.40;;;;;;;17.06;100.00;100578.78;5114560;27;20180;-72
2021/09/24 10:32:27;;;;;;;5.80;2.27;;;;;;;17.04;100.00;100572.03;5133181;27;20268;-72
2021/09/24 10:34:56;;;;;;;5.87;2.80;;;;;;;16.97;100.00;100566.31;5114662;27;20267;-72
2021/09/24 10:37:24;;;;;;;4.07;3.63;;;;;;;16.91;100.00;100574.81;5132985;27;20204;-72
2021/09/24 10:39:53;;;;;;;4.73;2.93;;;;;;;16.89;100.00;100573.56;5132996;27;20728;-74
2021/09/24 10:42:18;;;;;;;2.30;2.10;;;;;;;16.91;100.00;100574.03;5133062;27;20628;-73
2021/09/24 10:45:35;;;;;;;4.37;3.63;;;;;;;17.07;100.00;100571.31;5132948;27;20175;-73
2021/09/24 10:48:22;;;;;;;4.83;3.13;;;;;;;17.18;100.00;100581.50;5029134;28;20897;-74
2021/09/24 10:50:49;;;;;;;6.37;4.33;;;;;;;17.31;100.00;100573.16;5126794;27;20533;-74
2021/09/24 10:53:17;;;;;;;5.43;4.93;;;;;;;17.46;99.92;100578.72;5132784;27;20180;-74
2021/09/24 10:55:43;;;;;;;4.73;4.27;;;;;;;17.57;97.27;100567.94;5132901;27;20180;-74
2021/09/24 10:58:35;;;;;;;2.77;2.53;;;;;;;17.57;93.23;100562.41;5132709;27;20246;-74
2021/09/24 11:01:07;;;;;;;5.27;3.73;;;;;;;17.47;93.39;100572.03;5132442;27;20180;-73
2021/09/24 11:03:34;;;;;;;4.00;3.60;;;;;;;17.51;93.82;100566.63;5132551;27;20517;-73
2021/09/24 11:06:07;;;;;;;4.37;3.47;;;;;;;17.46;92.06;100561.34;5132215;27;20593;-73
2021/09/24 11:08:38;;;;;;;4.57;3.77;;;;;;;17.45;91.29;100562.50;5132652;27;20187;-73
2021/09/24 11:11:29;;;;;;;5.70;4.10;;;;;;;17.49;91.40;100571.66;5111759;27;20180;-73
2021/09/24 11:13:59;;;;;;;12.10;4.00;;;;;;;17.57;91.89;100559.66;5124581;27;20192;-73
2021/09/24 11:16:44;;;;;;;12.40;4.40;;;;;;;17.51;90.42;100713.84;5128209;27;20177;-73